Time;durP1;ratioP1;P1;durP2;ratioP2;P2;SDS_P1;SDS_P2;PMS_P1;PMS_P2;Temp;Humidity;BMP_temperature;BMP_pressure;BME280_temperature;BME280_humidity;BME280_pressure;Samples;Min_cycle;Max_cycle;Signal;HPM_P1;HPM_P2
2021/09/13 00:01:18;;;;;;;12.10;9.18;;;;;;;17.10;40.67;93803.66;4987030;28;20057;-78
2021/09/13 00:03:44;;;;;;;11.00;8.75;;;;;;;17.06;41.34;93805.47;4988374;28;20030;-79
2021/09/13 00:06:09;;;;;;;11.88;8.57;;;;;;;16.93;41.22;93787.16;4986423;28;20504;-80
2021/09/13 00:08:34;;;;;;;13.48;8.85;;;;;;;17.04;40.71;93802.38;4991804;28;20072;-79
2021/09/13 00:11:00;;;;;;;11.88;9.57;;;;;;;17.04;41.30;93807.75;4987576;28;20052;-79
2021/09/13 00:13:25;;;;;;;15.70;7.05;;;;;;;16.80;41.26;93794.59;4984633;28;20096;-79
2021/09/13 00:15:51;;;;;;;13.05;7.75;;;;;;;16.95;41.44;93801.81;4990398;28;20036;-80
2021/09/13 00:18:17;;;;;;;14.07;8.07;;;;;;;16.73;41.57;93781.00;4991033;28;20054;-79
2021/09/13 00:20:42;;;;;;;10.77;8.10;;;;;;;16.81;41.75;93809.59;4988151;28;20037;-79
2021/09/13 00:23:08;;;;;;;10.35;7.57;;;;;;;16.83;41.24;93801.94;4989748;28;20577;-80
2021/09/13 00:25:33;;;;;;;9.68;7.68;;;;;;;16.75;41.29;93808.31;4986104;28;20042;-80
2021/09/13 00:27:59;;;;;;;9.52;7.03;;;;;;;16.63;41.60;93785.03;4969196;28;20030;-80
2021/09/13 00:30:25;;;;;;;15.25;9.70;;;;;;;16.63;41.78;93790.38;4983812;28;20041;-79
2021/09/13 00:32:50;;;;;;;13.52;7.95;;;;;;;16.71;41.82;93805.53;4988416;28;20077;-79
2021/09/13 00:35:15;;;;;;;10.25;7.70;;;;;;;16.61;41.69;93795.34;4990478;28;20548;-80
2021/09/13 00:37:41;;;;;;;15.38;9.00;;;;;;;16.64;41.86;93799.22;4987872;28;20458;-79
2021/09/13 00:40:07;;;;;;;12.25;9.10;;;;;;;16.60;41.42;93785.72;4990253;28;20033;-78
2021/09/13 00:42:33;;;;;;;13.18;9.52;;;;;;;16.65;41.38;93795.41;4989019;28;20420;-79
2021/09/13 00:45:00;;;;;;;11.00;8.48;;;;;;;16.51;41.81;93789.75;4990473;28;20039;-79
2021/09/13 00:47:26;;;;;;;11.85;8.82;;;;;;;16.36;42.13;93775.22;4988654;28;20748;-78
2021/09/13 00:49:51;;;;;;;13.43;9.02;;;;;;;16.44;42.29;93816.41;4987357;28;20037;-79
2021/09/13 00:52:18;;;;;;;11.82;8.68;;;;;;;16.48;41.90;93806.53;4985374;28;20511;-79
2021/09/13 00:54:45;;;;;;;15.60;9.65;;;;;;;16.40;41.85;93791.41;4990407;28;20520;-79
2021/09/13 00:57:10;;;;;;;13.00;8.82;;;;;;;16.42;42.72;93807.94;4987204;28;20084;-79
2021/09/13 00:59:36;;;;;;;10.40;8.77;;;;;;;16.17;43.05;93789.34;4989019;28;20125;-79
2021/09/13 01:02:01;;;;;;;15.52;9.80;;;;;;;16.23;43.26;93806.72;4985981;28;20510;-78
2021/09/13 01:04:27;;;;;;;12.25;8.82;;;;;;;16.24;43.46;93807.50;4986446;28;20571;-79
2021/09/13 01:06:53;;;;;;;12.60;8.43;;;;;;;16.11;43.14;93793.41;4990187;28;20032;-79
2021/09/13 01:09:18;;;;;;;13.98;8.68;;;;;;;16.00;43.12;93772.81;4987965;28;20033;-79
2021/09/13 01:11:44;;;;;;;11.02;9.52;;;;;;;16.15;43.33;93814.97;4988168;28;20058;-79
2021/09/13 01:14:09;;;;;;;12.93;9.85;;;;;;;16.12;43.18;93808.41;4986314;28;20089;-79
2021/09/13 01:16:34;;;;;;;12.90;10.00;;;;;;;15.96;43.37;93785.38;4983813;28;20078;-80
2021/09/13 01:19:00;;;;;;;17.50;10.00;;;;;;;16.08;43.01;93812.91;4991383;28;20291;-76
2021/09/13 01:21:27;;;;;;;15.63;11.00;;;;;;;16.01;42.71;93807.34;4987492;28;20084;-78
2021/09/13 01:23:53;;;;;;;13.45;9.63;;;;;;;15.91;43.03;93799.81;4987705;28;20052;-79
2021/09/13 01:26:19;;;;;;;16.08;9.85;;;;;;;15.95;43.35;93800.69;4992514;28;20030;-78
2021/09/13 01:28:45;;;;;;;19.38;11.70;;;;;;;15.89;43.08;93792.13;4980764;28;20061;-79
2021/09/13 01:31:11;;;;;;;12.05;10.18;;;;;;;16.10;43.09;93813.31;4990078;28;20030;-80
2021/09/13 01:33:37;;;;;;;15.27;10.07;;;;;;;16.11;43.17;93825.63;4997103;28;20045;-78
2021/09/13 01:36:02;;;;;;;13.32;10.60;;;;;;;15.77;43.36;93767.31;4992626;28;20128;-79
2021/09/13 01:38:31;;;;;;;15.45;11.20;;;;;;;15.97;43.29;93819.13;4993722;28;20138;-79
2021/09/13 01:40:57;;;;;;;17.42;10.60;;;;;;;16.05;42.79;93810.13;4994431;28;20089;-79
2021/09/13 01:43:23;;;;;;;14.10;10.27;;;;;;;16.18;42.42;93815.03;4987180;28;20034;-79
2021/09/13 01:45:48;;;;;;;13.77;9.98;;;;;;;16.24;42.75;93820.91;4992741;28;20492;-79
2021/09/13 01:48:14;;;;;;;15.10;10.52;;;;;;;16.15;42.54;93807.69;4987776;28;20035;-79
2021/09/13 01:50:40;;;;;;;15.68;11.25;;;;;;;16.07;43.01;93818.59;4994006;28;20042;-79
2021/09/13 01:53:06;;;;;;;11.77;10.05;;;;;;;15.99;43.18;93825.69;4989297;28;20077;-79
2021/09/13 01:55:31;;;;;;;11.85;10.15;;;;;;;16.01;43.18;93826.13;4986677;28;20113;-79
2021/09/13 01:57:56;;;;;;;11.68;10.20;;;;;;;16.05;43.10;93832.34;4992432;28;20034;-79
2021/09/13 02:00:22;;;;;;;14.85;10.90;;;;;;;16.08;43.42;93830.91;4989963;28;20045;-79
2021/09/13 02:02:47;;;;;;;16.98;10.18;;;;;;;16.10;42.75;93810.63;4992755;28;20505;-78
2021/09/13 02:05:13;;;;;;;13.52;10.50;;;;;;;16.13;42.46;93828.75;4991654;28;20069;-79
2021/09/13 02:07:38;;;;;;;14.85;11.20;;;;;;;16.03;42.29;93807.81;4986578;28;20404;-79
2021/09/13 02:10:05;;;;;;;16.15;11.98;;;;;;;16.04;43.21;93820.06;4988111;28;20725;-79
2021/09/13 02:12:30;;;;;;;17.45;11.25;;;;;;;15.83;43.51;93808.84;4992965;28;20342;-79
2021/09/13 02:14:56;;;;;;;15.52;11.68;;;;;;;16.05;43.06;93823.53;4992594;28;20591;-79
2021/09/13 02:17:22;;;;;;;17.27;11.32;;;;;;;16.10;43.09;93832.09;4991031;28;20056;-79
2021/09/13 02:19:48;;;;;;;15.57;11.55;;;;;;;15.97;43.69;93830.63;4994749;28;20045;-79
2021/09/13 02:22:14;;;;;;;14.35;11.27;;;;;;;15.74;43.96;93803.63;4993308;28;20088;-79
2021/09/13 02:24:40;;;;;;;20.17;12.35;;;;;;;15.81;44.38;93832.53;4992817;28;20506;-79
2021/09/13 02:27:05;;;;;;;15.65;11.90;;;;;;;15.85;44.20;93830.69;4992095;28;20038;-80
2021/09/13 02:29:31;;;;;;;16.77;12.10;;;;;;;15.68;44.12;93817.66;4988777;28;20048;-79
2021/09/13 02:31:56;;;;;;;17.50;12.68;;;;;;;15.71;43.95;93825.00;4991906;28;20125;-79
2021/09/13 02:34:22;;;;;;;20.45;12.60;;;;;;;15.76;44.00;93830.09;4988882;28;20026;-79
2021/09/13 02:36:47;;;;;;;21.48;13.00;;;;;;;15.68;44.48;93820.31;4991001;28;20033;-80
2021/09/13 02:39:12;;;;;;;16.38;12.20;;;;;;;15.58;44.58;93808.22;4990796;28;20623;-79
2021/09/13 02:41:38;;;;;;;19.80;13.02;;;;;;;15.70;44.37;93831.47;4991623;28;20588;-78
2021/09/13 02:44:04;;;;;;;18.92;13.57;;;;;;;15.63;44.21;93815.22;4987506;28;20324;-79
2021/09/13 02:46:30;;;;;;;17.77;13.27;;;;;;;15.74;44.30;93832.34;4987919;28;20099;-79
2021/09/13 02:48:56;;;;;;;18.75;13.95;;;;;;;15.79;43.83;93840.16;4999304;28;20030;-79
2021/09/13 02:51:21;;;;;;;21.98;13.55;;;;;;;15.66;44.15;93830.59;4989279;28;20487;-78
2021/09/13 02:53:47;;;;;;;19.77;13.35;;;;;;;15.55;44.32;93832.25;4996965;28;20030;-79
2021/09/13 02:56:13;;;;;;;14.68;12.73;;;;;;;15.59;44.50;93841.94;4989762;28;20054;-76
2021/09/13 02:58:38;;;;;;;15.35;13.32;;;;;;;15.50;45.01;93821.78;4991270;28;20215;-78
2021/09/13 03:01:03;;;;;;;22.10;13.05;;;;;;;15.35;45.14;93826.69;4994804;28;20026;-78
2021/09/13 03:03:29;;;;;;;20.10;14.32;;;;;;;15.37;45.28;93845.91;4989726;28;20038;-78
2021/09/13 03:05:54;;;;;;;18.92;13.15;;;;;;;15.23;45.18;93829.44;4998340;28;20100;-79
2021/09/13 03:08:19;;;;;;;17.40;14.45;;;;;;;15.35;45.00;93847.38;4990963;28;20033;-79
2021/09/13 03:10:45;;;;;;;16.48;13.57;;;;;;;15.34;45.03;93851.97;4988062;28;20039;-80
2021/09/13 03:13:11;;;;;;;16.58;13.65;;;;;;;15.07;45.83;93815.22;4989612;28;20026;-79
2021/09/13 03:15:36;;;;;;;18.08;13.75;;;;;;;15.22;45.40;93833.25;4989841;28;20069;-79
2021/09/13 03:18:01;;;;;;;17.10;13.77;;;;;;;15.17;46.00;93836.16;4993090;28;20154;-79
2021/09/13 03:20:27;;;;;;;17.00;13.57;;;;;;;15.08;45.71;93826.72;5005541;28;20034;-78
2021/09/13 03:22:52;;;;;;;16.75;13.70;;;;;;;15.07;45.87;93831.28;4993474;28;20038;-79
2021/09/13 03:25:18;;;;;;;19.60;13.55;;;;;;;15.28;45.70;93844.50;4989378;28;20053;-79
2021/09/13 03:27:43;;;;;;;14.43;12.90;;;;;;;15.12;45.93;93839.09;4987688;28;20031;-78
2021/09/13 03:30:09;;;;;;;15.85;14.13;;;;;;;15.12;45.83;93851.69;4991679;28;20116;-79
2021/09/13 03:32:35;;;;;;;15.75;13.27;;;;;;;15.14;45.67;93836.06;4990269;28;20324;-77
2021/09/13 03:35:01;;;;;;;17.35;13.40;;;;;;;15.10;46.43;93851.28;4989417;28;20049;-79
2021/09/13 03:37:26;;;;;;;15.55;13.63;;;;;;;15.08;46.35;93848.91;4990998;28;20018;-79
2021/09/13 03:39:52;;;;;;;24.98;14.18;;;;;;;15.16;45.98;93845.31;4990511;28;20026;-79
2021/09/13 03:42:17;;;;;;;14.52;12.75;;;;;;;15.36;45.58;93854.28;4991124;28;20042;-80
2021/09/13 03:44:43;;;;;;;14.82;12.82;;;;;;;15.15;45.85;93833.06;4986457;28;20041;-79
2021/09/13 03:47:08;;;;;;;14.15;12.55;;;;;;;15.01;46.04;93838.00;4990346;28;20560;-79
2021/09/13 03:49:33;;;;;;;17.52;12.65;;;;;;;15.11;46.40;93858.19;4992294;28;20520;-79
2021/09/13 03:51:59;;;;;;;18.42;13.68;;;;;;;14.74;46.40;93810.09;4991549;28;20056;-78
2021/09/13 03:54:24;;;;;;;17.00;12.27;;;;;;;14.81;46.76;93842.44;4988116;28;20423;-80
2021/09/13 03:56:51;;;;;;;16.80;13.80;;;;;;;14.91;46.50;93851.88;4992830;28;20042;-79
2021/09/13 03:59:16;;;;;;;22.58;14.95;;;;;;;14.72;46.62;93841.75;4987854;28;20524;-78
2021/09/13 04:01:42;;;;;;;17.75;12.77;;;;;;;14.90;46.91;93863.72;4988553;28;20042;-79
2021/09/13 04:04:08;;;;;;;18.55;13.32;;;;;;;14.91;47.25;93876.00;4988190;28;20030;-79
2021/09/13 04:11:48;;;;;;;19.65;13.57;;;;;;;14.90;46.50;93872.53;4987861;28;20037;-81
2021/09/13 04:14:15;;;;;;;15.27;13.38;;;;;;;14.85;47.04;93869.31;4990118;28;20034;-78
2021/09/13 04:16:41;;;;;;;13.70;12.25;;;;;;;14.81;47.13;93857.72;4985965;28;20483;-79
2021/09/13 04:19:07;;;;;;;15.00;12.57;;;;;;;14.91;46.42;93870.63;4987234;28;20477;-78
2021/09/13 04:21:32;;;;;;;16.48;12.60;;;;;;;14.93;46.46;93873.75;4986707;28;20176;-79
2021/09/13 04:23:57;;;;;;;14.63;12.88;;;;;;;14.84;46.78;93860.47;4989700;28;20065;-79
2021/09/13 04:26:23;;;;;;;18.05;12.10;;;;;;;14.84;46.60;93857.81;4991171;28;20030;-78
2021/09/13 04:28:48;;;;;;;25.77;13.23;;;;;;;14.89;46.66;93862.94;4989285;28;20781;-80
2021/09/13 04:31:14;;;;;;;17.85;12.20;;;;;;;15.02;47.14;93877.84;4989467;28;20030;-74
2021/09/13 04:33:39;;;;;;;15.73;12.55;;;;;;;14.95;47.03;93879.53;4988614;28;20034;-79
2021/09/13 04:36:05;;;;;;;19.35;13.50;;;;;;;14.89;47.54;93870.19;4992036;28;20044;-78
2021/09/13 04:38:30;;;;;;;16.02;11.45;;;;;;;15.30;46.12;93877.84;4989154;28;20034;-79
2021/09/13 04:40:55;;;;;;;22.42;13.15;;;;;;;15.24;46.41;93884.59;4988828;28;20452;-79
2021/09/13 04:43:21;;;;;;;17.83;12.20;;;;;;;15.28;46.69;93884.69;4988099;28;20118;-78
2021/09/13 04:45:46;;;;;;;20.45;12.77;;;;;;;15.64;46.51;93886.47;4989274;28;20029;-79
2021/09/13 04:48:12;;;;;;;15.73;12.38;;;;;;;15.69;46.33;93860.22;4988608;28;20040;-80
2021/09/13 04:50:37;;;;;;;16.58;12.65;;;;;;;15.78;46.10;93884.16;4993340;28;20046;-78
2021/09/13 04:53:03;;;;;;;16.27;12.88;;;;;;;15.46;46.62;93849.25;4988517;28;20060;-79
2021/09/13 04:55:28;;;;;;;18.45;13.35;;;;;;;15.78;45.75;93884.16;4986125;28;20022;-79
2021/09/13 04:57:53;;;;;;;22.63;13.18;;;;;;;15.52;46.71;93884.63;4987645;28;20476;-79
2021/09/13 05:00:21;;;;;;;16.75;13.02;;;;;;;15.53;45.54;93880.84;4983893;28;20386;-79
2021/09/13 05:02:47;;;;;;;23.83;14.63;;;;;;;15.68;45.19;93904.22;4991893;28;20034;-78
2021/09/13 05:05:12;;;;;;;23.23;14.50;;;;;;;15.81;44.54;93891.53;4984411;28;20041;-78
2021/09/13 05:08:13;;;;;;;18.00;14.10;;;;;;;16.08;44.42;93906.81;4985049;28;20539;-80
2021/09/13 05:10:38;;;;;;;18.60;14.05;;;;;;;15.77;46.19;93896.00;4987051;28;20087;-79
2021/09/13 05:13:05;;;;;;;26.20;15.32;;;;;;;15.80;45.89;93908.72;4994485;28;20045;-79
2021/09/13 05:15:31;;;;;;;18.67;14.13;;;;;;;15.73;46.13;93892.47;4990104;28;20042;-80
2021/09/13 05:17:56;;;;;;;21.58;14.15;;;;;;;15.87;46.31;93917.75;4989981;28;20128;-79
2021/09/13 05:20:21;;;;;;;20.95;14.05;;;;;;;15.73;46.20;93892.47;4991213;28;20128;-80
2021/09/13 05:22:47;;;;;;;24.67;16.05;;;;;;;15.94;46.09;93914.47;4990471;28;20390;-80
2021/09/13 05:25:12;;;;;;;20.65;15.18;;;;;;;15.95;46.41;93907.97;4995226;28;20045;-80
2021/09/13 05:27:38;;;;;;;20.20;15.00;;;;;;;15.95;45.99;93893.78;4989511;28;20621;-79
2021/09/13 05:30:04;;;;;;;25.45;16.40;;;;;;;15.81;45.43;93843.25;4991553;28;20030;-79
2021/09/13 05:32:30;;;;;;;24.15;15.68;;;;;;;16.27;45.05;93908.78;4984720;28;20038;-79
2021/09/13 05:34:55;;;;;;;23.42;15.60;;;;;;;16.43;45.00;93917.63;4985896;28;20041;-80
2021/09/13 05:37:21;;;;;;;18.15;15.43;;;;;;;16.40;45.50;93914.88;4986147;28;20320;-80
2021/09/13 05:39:46;;;;;;;19.35;15.05;;;;;;;16.36;44.27;93900.59;4989373;28;20030;-79
2021/09/13 05:42:11;;;;;;;20.65;14.82;;;;;;;16.61;44.10;93920.75;4986999;28;20500;-79
2021/09/13 05:44:37;;;;;;;23.83;16.80;;;;;;;16.67;43.31;93906.72;4988693;28;20107;-79
2021/09/13 05:47:03;;;;;;;21.33;15.95;;;;;;;16.82;42.51;93912.44;4990626;28;20034;-79
2021/09/13 05:49:28;;;;;;;29.67;17.60;;;;;;;16.63;43.94;93897.00;4987977;28;20033;-80
2021/09/13 05:51:54;;;;;;;24.83;17.10;;;;;;;16.84;43.47;93913.63;4992129;28;20310;-80
2021/09/13 05:54:25;;;;;;;29.02;17.10;;;;;;;16.95;43.31;93919.25;4987857;28;20551;-79
2021/09/13 05:56:54;;;;;;;24.88;17.50;;;;;;;16.89;44.50;93918.72;4990456;28;21071;-80
2021/09/13 05:59:21;;;;;;;30.77;19.02;;;;;;;16.82;44.58;93899.75;4994290;28;20050;-80
2021/09/13 06:01:47;;;;;;;26.15;16.63;;;;;;;17.13;43.21;93915.84;4990213;28;20046;-80
2021/09/13 06:04:12;;;;;;;26.40;17.13;;;;;;;17.15;42.81;93916.28;4988045;28;20042;-79
2021/09/13 06:06:38;;;;;;;24.73;17.08;;;;;;;17.21;43.23;93913.31;4987423;28;20050;-78
2021/09/13 06:09:05;;;;;;;32.75;17.27;;;;;;;17.24;43.66;93913.38;4991012;28;21483;-79
2021/09/13 06:11:32;;;;;;;32.13;18.75;;;;;;;17.45;42.65;93923.81;4987034;28;20046;-76
2021/09/13 06:13:58;;;;;;;33.20;17.95;;;;;;;17.58;42.68;93923.31;4992089;28;20107;-79
2021/09/13 06:16:23;;;;;;;28.70;17.25;;;;;;;17.55;43.20;93913.25;4986910;28;20665;-80
2021/09/13 06:18:48;;;;;;;37.53;20.25;;;;;;;17.53;43.19;93917.44;4991799;28;20124;-80
2021/09/13 06:21:14;;;;;;;29.88;18.73;;;;;;;17.39;43.04;93898.31;4988972;28;20085;-79
2021/09/13 06:23:40;;;;;;;34.53;18.73;;;;;;;17.62;42.99;93923.38;4991690;28;20356;-79
2021/09/13 06:26:05;;;;;;;30.52;17.27;;;;;;;17.60;42.84;93922.94;4986418;28;20046;-80
2021/09/13 06:28:30;;;;;;;28.80;16.83;;;;;;;17.91;42.94;93925.47;4990832;28;20373;-80
2021/09/13 06:30:56;;;;;;;44.10;17.40;;;;;;;18.03;42.90;93925.34;4996647;28;20115;-80
2021/09/13 06:33:21;;;;;;;26.88;17.80;;;;;;;18.07;42.70;93913.88;4990144;28;20179;-79
2021/09/13 06:35:47;;;;;;;26.27;18.05;;;;;;;18.28;41.97;93922.31;4990986;28;20501;-79
2021/09/13 06:38:13;;;;;;;25.00;17.48;;;;;;;18.13;41.79;93928.59;4991441;28;20030;-80
2021/09/13 06:40:39;;;;;;;20.83;17.15;;;;;;;18.16;41.71;93909.03;4992023;28;20061;-81
2021/09/13 06:43:04;;;;;;;26.80;16.95;;;;;;;18.52;39.96;93926.56;4996248;28;20034;-81
2021/09/13 06:45:39;;;;;;;30.42;16.77;;;;;;;18.43;39.97;93914.09;4991514;28;20514;-80
2021/09/13 06:48:05;;;;;;;;;;;;;;;18.50;40.56;93929.59;4993396;28;20075;-80
2021/09/13 06:50:31;;;;;;;29.73;17.33;;;;;;;18.33;40.86;93935.50;4991096;28;19932;-77
2021/09/13 06:52:57;;;;;;;26.02;17.33;;;;;;;18.31;41.66;93927.75;4997021;28;20279;-79
2021/09/13 06:55:23;;;;;;;23.42;16.98;;;;;;;18.48;40.31;93931.13;4992628;28;21041;-79
2021/09/13 06:57:49;;;;;;;26.10;16.00;;;;;;;18.36;40.21;93897.84;4990477;28;20113;-79
2021/09/13 07:00:17;;;;;;;35.47;16.23;;;;;;;18.53;42.11;93931.56;4989956;28;20069;-80
2021/09/13 07:02:44;;;;;;;22.00;15.90;;;;;;;18.63;41.70;93938.28;4990442;28;20043;-80
2021/09/13 07:05:11;;;;;;;24.92;16.73;;;;;;;18.79;40.36;93934.34;4989850;28;20156;-80
2021/09/13 07:07:37;;;;;;;21.08;16.35;;;;;;;18.79;40.60;93930.88;4989896;28;20046;-80
2021/09/13 07:10:05;;;;;;;25.00;15.43;;;;;;;18.99;41.11;93931.53;4988918;28;20033;-78
2021/09/13 07:12:30;;;;;;;26.20;15.98;;;;;;;19.01;39.87;93937.38;4991517;28;20119;-80
2021/09/13 07:14:56;;;;;;;24.58;15.43;;;;;;;18.66;40.42;93930.25;4986983;28;20041;-79
2021/09/13 07:17:21;;;;;;;29.08;15.80;;;;;;;19.00;40.91;93941.19;4990549;28;20042;-79
2021/09/13 07:19:47;;;;;;;23.50;15.25;;;;;;;19.07;39.71;93920.50;4990423;28;20069;-80
2021/09/13 07:22:12;;;;;;;26.42;16.30;;;;;;;19.16;38.19;93934.53;4992794;28;20274;-80
2021/09/13 07:24:43;;;;;;;27.15;14.93;;;;;;;19.34;38.48;93934.75;4989444;28;20548;-76
2021/09/13 07:27:10;;;;;;;29.52;15.75;;;;;;;19.50;38.93;93940.78;4988643;28;20467;-78
2021/09/13 07:29:36;;;;;;;29.95;16.42;;;;;;;19.51;38.97;93936.91;4987346;28;20072;-79
2021/09/13 07:32:02;;;;;;;33.88;16.17;;;;;;;19.45;38.41;93940.31;4988305;28;20037;-78
2021/09/13 07:34:28;;;;;;;25.65;15.88;;;;;;;19.37;38.66;93928.63;4987734;28;20836;-80
2021/09/13 07:36:55;;;;;;;36.88;18.00;;;;;;;19.47;38.05;93917.22;4988151;28;20025;-79
2021/09/13 07:39:25;;;;;;;29.50;16.60;;;;;;;19.70;37.95;93931.38;4989741;28;20649;-80
2021/09/13 07:41:51;;;;;;;33.50;16.23;;;;;;;19.90;37.97;93937.38;4990441;28;20046;-79
2021/09/13 07:44:17;;;;;;;34.55;17.83;;;;;;;20.08;36.56;93938.38;4988271;28;20038;-80
2021/09/13 07:46:43;;;;;;;22.10;15.38;;;;;;;20.18;36.57;93934.25;4989738;28;20140;-79
2021/09/13 07:49:09;;;;;;;25.55;15.88;;;;;;;20.12;36.84;93938.41;4989455;28;20696;-80
2021/09/13 07:51:35;;;;;;;25.35;17.70;;;;;;;20.24;36.13;93932.75;4988784;28;20447;-80
2021/09/13 07:54:00;;;;;;;24.10;16.98;;;;;;;20.22;36.23;93920.78;4987681;28;20066;-80
2021/09/13 07:56:26;;;;;;;29.02;17.13;;;;;;;20.16;36.78;93920.31;4991003;28;20041;-80
2021/09/13 07:58:51;;;;;;;33.85;16.60;;;;;;;20.30;36.54;93925.09;4988110;28;20140;-80
2021/09/13 08:01:17;;;;;;;28.25;15.80;;;;;;;20.57;35.62;93946.22;4989522;28;20038;-79
2021/09/13 08:03:42;;;;;;;30.65;15.52;;;;;;;20.53;35.27;93933.81;4991574;28;20456;-81
2021/09/13 08:06:08;;;;;;;22.23;14.85;;;;;;;20.64;35.27;93944.69;4988188;28;20070;-80
2021/09/13 08:08:35;;;;;;;24.10;15.90;;;;;;;20.70;35.19;93940.50;5005316;28;20648;-80
2021/09/13 08:11:01;;;;;;;28.50;14.85;;;;;;;20.65;35.89;93930.03;4987800;28;20128;-79
2021/09/13 08:13:26;;;;;;;33.20;14.90;;;;;;;20.74;35.26;93917.00;4988317;28;20101;-79
2021/09/13 08:15:52;;;;;;;21.90;15.10;;;;;;;20.92;34.91;93939.56;4989436;28;20425;-80
2021/09/13 08:18:17;;;;;;;33.30;17.17;;;;;;;20.86;35.17;93900.50;4994467;28;20046;-79
2021/09/13 08:20:42;;;;;;;27.52;15.40;;;;;;;21.02;34.65;93941.59;4988859;28;20113;-78
2021/09/13 08:23:08;;;;;;;25.38;15.18;;;;;;;21.05;36.06;93940.81;4985153;28;20543;-80
2021/09/13 08:25:33;;;;;;;26.42;16.67;;;;;;;21.13;34.79;93939.69;4989785;28;20456;-79
2021/09/13 08:27:59;;;;;;;25.67;16.05;;;;;;;21.03;34.94;93924.19;4986267;28;20197;-79
2021/09/13 08:30:26;;;;;;;24.48;14.05;;;;;;;21.19;35.37;93943.63;4990858;28;20539;-78
2021/09/13 08:32:51;;;;;;;25.23;15.38;;;;;;;21.28;36.05;93929.75;4988015;28;20070;-79
2021/09/13 08:35:17;;;;;;;25.83;14.60;;;;;;;21.38;35.05;93924.41;4990545;28;20523;-80
2021/09/13 08:37:42;;;;;;;21.85;14.65;;;;;;;21.34;35.01;93918.19;4992160;28;20829;-79
2021/09/13 08:40:08;;;;;;;24.20;14.73;;;;;;;21.38;35.02;93924.41;4988678;28;20468;-79
2021/09/13 08:42:42;;;;;;;23.17;14.65;;;;;;;21.49;35.47;93929.09;4991579;28;20051;-79
2021/09/13 08:45:09;;;;;;;25.25;14.75;;;;;;;21.41;34.87;93934.47;4990454;28;20053;-79
2021/09/13 08:47:39;;;;;;;25.80;13.20;;;;;;;21.59;35.24;93928.41;4991344;28;20049;-79
2021/09/13 08:50:23;;;;;;;20.98;14.57;;;;;;;20.81;34.66;93808.94;4993349;28;20576;-81
2021/09/13 08:52:49;;;;;;;24.70;14.23;;;;;;;21.49;34.60;93888.50;4993318;28;20334;-79
2021/09/13 08:55:15;;;;;;;24.45;13.15;;;;;;;21.87;34.54;93912.28;4992230;28;20494;-80
2021/09/13 08:57:41;;;;;;;20.92;13.95;;;;;;;22.01;34.25;93923.16;4996382;28;20030;-79
2021/09/13 09:00:08;;;;;;;21.00;13.93;;;;;;;22.01;34.43;93919.66;4989560;28;20034;-79
2021/09/13 09:02:34;;;;;;;21.27;15.05;;;;;;;21.78;34.59;93926.16;4992798;28;20092;-79
2021/09/13 09:05:02;;;;;;;24.83;12.70;;;;;;;21.72;34.22;93921.50;4990866;28;20478;-79
2021/09/13 09:07:28;;;;;;;21.92;12.85;;;;;;;21.76;34.44;93922.28;4994003;28;20030;-79
2021/09/13 09:10:13;;;;;;;16.83;12.75;;;;;;;21.94;33.14;93917.72;4991205;28;20484;-80
2021/09/13 09:13:01;;;;;;;19.83;12.48;;;;;;;22.10;33.70;93915.44;4993745;28;20054;-79
2021/09/13 09:15:27;;;;;;;15.88;9.95;;;;;;;21.97;32.17;93908.03;4990031;28;20783;-80
2021/09/13 09:17:55;;;;;;;20.05;11.25;;;;;;;21.94;32.98;93923.13;4995436;28;20053;-80
2021/09/13 09:20:22;;;;;;;19.30;10.73;;;;;;;22.05;32.40;93913.09;4990317;28;20056;-81
2021/09/13 09:22:58;;;;;;;14.98;10.18;;;;;;;22.16;33.35;93903.06;4992494;28;20117;-80
2021/09/13 09:25:26;;;;;;;14.20;9.07;;;;;;;22.15;31.55;93908.84;4993338;28;20033;-80
2021/09/13 09:28:06;;;;;;;11.57;9.23;;;;;;;22.00;31.27;93897.22;4992286;28;20037;-80
2021/09/13 09:30:34;;;;;;;15.90;10.20;;;;;;;22.10;31.51;93893.75;4991655;28;20046;-78
2021/09/13 09:33:09;;;;;;;19.33;9.52;;;;;;;22.19;31.56;93902.28;4991901;28;20509;-76
2021/09/13 09:35:56;;;;;;;13.25;9.32;;;;;;;22.26;31.12;93907.75;4993003;28;20049;-79
2021/09/13 09:38:27;;;;;;;14.95;8.63;;;;;;;22.39;32.03;93905.44;4992938;28;20085;-78
2021/09/13 09:41:09;;;;;;;17.73;8.02;;;;;;;22.56;31.18;93898.50;4993432;28;20042;-79
2021/09/13 09:44:06;;;;;;;15.73;9.98;;;;;;;22.61;31.04;93895.41;4991142;28;20046;-78
2021/09/13 09:46:35;;;;;;;13.77;7.72;;;;;;;22.72;30.55;93890.75;4995918;28;20457;-79
2021/09/13 09:49:05;;;;;;;15.23;9.85;;;;;;;22.59;30.31;93892.28;4999728;28;20041;-79
2021/09/13 09:51:31;;;;;;;14.32;8.95;;;;;;;22.61;30.65;93898.88;4983298;28;20485;-79
2021/09/13 09:54:06;;;;;;;12.43;7.47;;;;;;;22.66;31.53;93892.31;4987280;28;20072;-78
2021/09/13 09:56:32;;;;;;;22.90;8.65;;;;;;;22.72;30.97;93894.25;4987029;28;20116;-79
2021/09/13 09:59:02;;;;;;;13.35;9.00;;;;;;;22.69;30.43;93888.81;4986044;28;20038;-78
2021/09/13 10:01:35;;;;;;;12.70;8.38;;;;;;;22.57;30.36;93889.22;4986492;28;20431;-79
2021/09/13 10:04:15;;;;;;;13.73;8.07;;;;;;;22.53;30.40;93885.72;4985242;28;20432;-78
2021/09/13 10:06:42;;;;;;;12.27;8.10;;;;;;;22.46;30.30;93870.22;4988163;28;20051;-79
2021/09/13 10:09:10;;;;;;;8.95;7.65;;;;;;;22.60;30.68;93883.78;4987082;28;20126;-77
2021/09/13 10:11:39;;;;;;;8.80;7.78;;;;;;;22.53;30.40;93870.25;4990823;28;20042;-79
2021/09/13 10:14:07;;;;;;;15.00;9.00;;;;;;;22.54;30.08;93884.53;4981484;28;20038;-79
2021/09/13 10:16:39;;;;;;;8.73;7.82;;;;;;;22.57;30.18;93867.53;4979693;28;20049;-79
2021/09/13 10:19:05;;;;;;;12.60;8.25;;;;;;;22.69;30.57;93875.25;4985460;28;20068;-80
2021/09/13 10:21:31;;;;;;;17.98;9.02;;;;;;;22.77;30.35;93849.72;4982088;28;20152;-79
2021/09/13 10:23:57;;;;;;;12.45;7.93;;;;;;;22.88;32.38;93872.16;4988309;28;20077;-81
2021/09/13 10:26:23;;;;;;;10.80;8.40;;;;;;;22.94;30.93;93869.84;4983149;28;21251;-80
2021/09/13 10:29:01;;;;;;;8.00;7.20;;;;;;;23.20;30.52;93871.34;4984713;28;20500;-77
2021/09/13 10:31:41;;;;;;;10.02;7.45;;;;;;;23.13;30.03;93864.78;4976534;28;20120;-80
2021/09/13 10:34:25;;;;;;;17.83;7.70;;;;;;;23.07;29.37;93868.28;4985490;28;20022;-79
2021/09/13 10:37:18;;;;;;;10.02;7.85;;;;;;;22.75;30.31;93868.28;4987429;28;20042;-79
2021/09/13 10:39:50;;;;;;;12.68;8.02;;;;;;;22.87;30.52;93867.94;4984044;28;20046;-80
2021/09/13 10:42:48;;;;;;;10.52;7.40;;;;;;;23.09;29.79;93857.81;4989696;28;20074;-79
2021/09/13 10:45:18;;;;;;;10.35;7.85;;;;;;;23.25;30.17;93869.00;4982986;28;20046;-78
2021/09/13 10:48:03;;;;;;;12.77;8.00;;;;;;;23.08;29.50;93870.59;4986880;28;20575;-79
2021/09/13 10:50:52;;;;;;;9.38;7.78;;;;;;;22.87;29.96;93869.88;4987890;28;20050;-79
2021/09/13 10:53:17;;;;;;;11.68;7.95;;;;;;;22.93;30.21;93862.88;4998175;28;20675;-79
2021/09/13 10:55:58;;;;;;;13.35;8.23;;;;;;;22.96;30.02;93862.09;4987930;28;20048;-78
2021/09/13 10:58:30;;;;;;;15.35;8.23;;;;;;;23.25;30.63;93862.81;4988557;28;20030;-80
2021/09/13 11:01:00;;;;;;;12.38;8.02;;;;;;;23.31;29.55;93855.81;4988024;28;20120;-79
2021/09/13 11:08:45;;;;;;;12.00;7.70;;;;;;;23.29;29.53;93852.72;4990576;28;20680;-79
2021/09/13 11:11:31;;;;;;;12.45;7.38;;;;;;;23.20;30.33;93833.38;4987320;28;20128;-80
2021/09/13 11:14:20;;;;;;;8.02;6.68;;;;;;;23.19;29.43;93854.28;4992940;28;20113;-79
2021/09/13 11:16:46;;;;;;;13.13;6.78;;;;;;;23.43;31.62;93841.81;4988161;28;20046;-79
2021/09/13 11:19:14;;;;;;;13.75;7.78;;;;;;;23.48;29.89;93834.03;4992464;28;20069;-79
2021/09/13 11:22:08;;;;;;;10.98;7.40;;;;;;;23.34;29.41;93842.22;4986736;28;20051;-81
2021/09/13 11:24:37;;;;;;;11.20;6.20;;;;;;;23.51;29.69;93835.22;4980286;28;20038;-80
2021/09/13 11:27:06;;;;;;;8.55;6.85;;;;;;;23.67;28.63;93846.38;4989936;28;20106;-79
2021/09/13 11:29:37;;;;;;;13.00;7.47;;;;;;;23.76;28.59;93835.13;4989051;28;20054;-78
2021/09/13 11:32:07;;;;;;;18.63;6.80;;;;;;;23.73;28.89;93822.31;4993179;28;20039;-80